Time,TemperatureF,DewpointF,PressureIn,WindDirection,WindDirectionDegrees,WindSpeedMPH,WindSpeedGustMPH,Humidity,HourlyPrecipIn,Conditions,Clouds,dailyrainin,SoftwareType,DateUTC
2017-02-23 00:02:00,56.8,53.3,29.66,SSW,194,0.0,0.0,88,0.00,,,0.00,VWS V15.00,2017-02-23 06:02:00,
2017-02-23 00:07:00,56.4,53.5,29.66,SSW,192,0.0,0.0,90,0.00,,,0.00,VWS V15.00,2017-02-23 06:07:00,
2017-02-23 00:12:00,56.1,53.2,29.66,SSW,192,0.0,0.0,90,0.00,,,0.00,VWS V15.00,2017-02-23 06:12:00,
2017-02-23 00:22:00,55.4,52.8,29.66,SSW,192,0.0,0.0,91,0.00,,,0.00,VWS V15.00,2017-02-23 06:22:00,
2017-02-23 00:27:00,55.3,53.0,29.65,SSW,192,0.0,0.0,92,0.00,,,0.00,VWS V15.00,2017-02-23 06:27:00,
2017-02-23 00:32:00,55.3,53.0,29.65,SSW,192,0.0,0.0,92,0.00,,,0.00,VWS V15.00,2017-02-23 06:32:00,
2017-02-23 00:37:00,55.2,53.2,29.65,SSW,192,0.0,0.0,93,0.00,,,0.00,VWS V15.00,2017-02-23 06:37:00,
2017-02-23 00:42:00,55.0,53.0,29.65,SSW,192,0.0,0.0,93,0.00,,,0.00,VWS V15.00,2017-02-23 06:42:00,
2017-02-23 00:47:00,54.9,52.9,29.65,SSW,192,0.0,0.0,93,0.00,,,0.00,VWS V15.00,2017-02-23 06:47:00,
2017-02-23 00:52:00,54.6,52.6,29.65,SSW,192,0.0,0.0,93,0.00,,,0.00,VWS V15.00,2017-02-23 06:52:00,
2017-02-23 00:57:00,54.5,52.5,29.64,SSW,192,0.0,0.0,93,0.00,,,0.00,VWS V15.00,2017-02-23 06:57:00,
2017-02-23 01:02:00,54.5,52.8,29.64,SSW,192,0.0,0.0,94,0.00,,,0.00,VWS V15.00,2017-02-23 07:02:00,
2017-02-23 01:07:00,54.5,52.8,29.64,SSW,192,0.0,0.0,94,0.00,,,0.00,VWS V15.00,2017-02-23 07:07:00,
2017-02-23 01:12:00,54.4,52.7,29.64,SSW,192,0.0,0.0,94,0.00,,,0.00,VWS V15.00,2017-02-23 07:12:00,
2017-02-23 01:22:00,54.5,52.8,29.64,SE,141,0.0,0.0,94,0.00,,,0.00,VWS V15.00,2017-02-23 07:22:00,
2017-02-23 01:27:00,54.5,52.8,29.64,SE,141,0.0,0.0,94,0.00,,,0.00,VWS V15.00,2017-02-23 07:27:00,
2017-02-23 01:32:00,54.3,52.6,29.64,SE,141,0.0,0.0,94,0.00,,,0.00,VWS V15.00,2017-02-23 07:32:00,
2017-02-23 01:37:00,54.2,52.5,29.64,SE,141,0.0,0.0,94,0.00,,,0.00,VWS V15.00,2017-02-23 07:37:00,
2017-02-23 01:42:00,54.3,52.9,29.63,SE,141,0.0,0.0,95,0.00,,,0.00,VWS V15.00,2017-02-23 07:42:00,
2017-02-23 01:47:00,54.5,53.1,29.63,SE,141,0.0,0.0,95,0.00,,,0.00,VWS V15.00,2017-02-23 07:47:00,
2017-02-23 01:52:00,54.5,53.1,29.63,SE,141,0.0,0.0,95,0.00,,,0.00,VWS V15.00,2017-02-23 07:52:00,
2017-02-23 01:57:00,54.4,53.0,29.63,SE,141,0.0,0.0,95,0.00,,,0.00,VWS V15.00,2017-02-23 07:57:00,
2017-02-23 02:07:00,54.1,52.7,29.63,SE,142,0.0,0.0,95,0.00,,,0.00,VWS V15.00,2017-02-23 08:07:00,
2017-02-23 02:17:00,54.2,52.8,29.62,SE,141,0.0,0.0,95,0.00,,,0.00,VWS V15.00,2017-02-23 08:17:00,
2017-02-23 02:22:00,54.0,52.6,29.62,SE,141,0.0,0.0,95,0.00,,,0.00,VWS V15.00,2017-02-23 08:22:00,
2017-02-23 02:27:00,53.8,52.4,29.62,SE,142,0.0,0.0,95,0.00,,,0.00,VWS V15.00,2017-02-23 08:27:00,
2017-02-23 02:32:00,53.6,52.2,29.62,SE,141,0.0,0.0,95,0.00,,,0.00,VWS V15.00,2017-02-23 08:32:00,
2017-02-23 02:37:00,53.5,52.1,29.62,SE,141,0.0,0.0,95,0.00,,,0.00,VWS V15.00,2017-02-23 08:37:00,
2017-02-23 02:42:00,53.3,51.9,29.62,SE,141,0.0,0.0,95,0.00,,,0.00,VWS V15.00,2017-02-23 08:42:00,
2017-02-23 02:47:00,53.2,51.8,29.62,SE,141,0.0,0.0,95,0.00,,,0.00,VWS V15.00,2017-02-23 08:47:00,
2017-02-23 02:57:00,53.2,51.8,29.61,SE,142,0.0,0.0,95,0.00,,,0.00,VWS V15.00,2017-02-23 08:57:00,
2017-02-23 03:02:00,53.2,51.8,29.61,SE,141,0.0,0.0,95,0.00,,,0.00,VWS V15.00,2017-02-23 09:02:00,
2017-02-23 03:07:00,53.3,52.2,29.61,SE,142,0.0,0.0,96,0.00,,,0.00,VWS V15.00,2017-02-23 09:07:00,
2017-02-23 03:12:00,53.3,52.2,29.61,SE,141,0.0,0.0,96,0.00,,,0.00,VWS V15.00,2017-02-23 09:12:00,
2017-02-23 03:17:00,53.5,52.4,29.61,SE,142,0.0,0.0,96,0.00,,,0.00,VWS V15.00,2017-02-23 09:17:00,
2017-02-23 03:22:00,53.6,52.5,29.61,SE,141,0.0,0.0,96,0.00,,,0.00,VWS V15.00,2017-02-23 09:22:00,
2017-02-23 03:27:00,53.7,52.6,29.60,SE,141,0.0,0.0,96,0.00,,,0.00,VWS V15.00,2017-02-23 09:27:00,
2017-02-23 03:32:00,54.2,53.1,29.60,SE,141,0.0,0.0,96,0.00,,,0.00,VWS V15.00,2017-02-23 09:32:00,
2017-02-23 03:37:00,54.1,53.0,29.60,SE,142,0.0,0.0,96,0.00,,,0.00,VWS V15.00,2017-02-23 09:37:00,
2017-02-23 03:42:00,54.2,53.1,29.60,SE,141,0.0,0.0,96,0.00,,,0.00,VWS V15.00,2017-02-23 09:42:00,
2017-02-23 03:47:00,54.4,53.3,29.60,SE,142,0.0,0.0,96,0.00,,,0.00,VWS V15.00,2017-02-23 09:47:00,
2017-02-23 03:52:00,54.7,53.6,29.60,SE,144,0.0,0.0,96,0.00,,,0.00,VWS V15.00,2017-02-23 09:52:00,
2017-02-23 03:57:00,54.6,53.2,29.59,SE,144,0.0,0.0,95,0.00,,,0.00,VWS V15.00,2017-02-23 09:57:00,
2017-02-23 04:02:00,54.7,53.3,29.59,SE,144,0.0,0.0,95,0.00,,,0.00,VWS V15.00,2017-02-23 10:02:00,
2017-02-23 04:07:00,55.0,53.6,29.59,SE,144,0.0,0.0,95,0.00,,,0.00,VWS V15.00,2017-02-23 10:07:00,
2017-02-23 04:12:00,55.0,53.3,29.60,SE,144,0.0,0.0,94,0.00,,,0.00,VWS V15.00,2017-02-23 10:12:00,
2017-02-23 04:17:00,54.9,53.2,29.60,ESE,110,0.0,0.0,94,0.00,,,0.00,VWS V15.00,2017-02-23 10:17:00,
2017-02-23 04:22:00,55.1,53.4,29.60,ESE,120,0.0,0.0,94,0.00,,,0.00,VWS V15.00,2017-02-23 10:22:00,
2017-02-23 04:27:00,55.0,53.3,29.60,ESE,120,0.0,0.0,94,0.00,,,0.00,VWS V15.00,2017-02-23 10:27:00,
2017-02-23 04:32:00,55.0,53.0,29.60,ESE,120,0.0,0.0,93,0.00,,,0.00,VWS V15.00,2017-02-23 10:32:00,
2017-02-23 04:37:00,55.0,53.0,29.60,ESE,120,0.0,0.0,93,0.00,,,0.00,VWS V15.00,2017-02-23 10:37:00,
2017-02-23 04:42:00,55.1,53.1,29.60,ESE,120,0.0,0.0,93,0.00,,,0.00,VWS V15.00,2017-02-23 10:42:00,
2017-02-23 04:47:00,55.2,53.2,29.60,ESE,120,0.0,0.0,93,0.00,,,0.00,VWS V15.00,2017-02-23 10:47:00,
2017-02-23 04:52:00,55.2,53.2,29.60,ESE,120,0.0,0.0,93,0.00,,,0.00,VWS V15.00,2017-02-23 10:52:00,
2017-02-23 04:57:00,55.0,53.0,29.60,ESE,121,0.0,0.0,93,0.00,,,0.00,VWS V15.00,2017-02-23 10:57:00,
2017-02-23 05:02:00,55.0,53.0,29.60,ESE,121,0.0,0.0,93,0.00,,,0.00,VWS V15.00,2017-02-23 11:02:00,
2017-02-23 05:07:00,54.9,52.9,29.60,ESE,120,0.0,0.0,93,0.00,,,0.00,VWS V15.00,2017-02-23 11:07:00,
2017-02-23 05:12:00,54.7,52.7,29.60,ESE,120,0.0,0.0,93,0.00,,,0.00,VWS V15.00,2017-02-23 11:12:00,
2017-02-23 05:17:00,54.7,52.7,29.60,ESE,120,0.0,0.0,93,0.00,,,0.00,VWS V15.00,2017-02-23 11:17:00,
2017-02-23 05:22:00,54.7,52.7,29.60,ESE,120,0.0,0.0,93,0.00,,,0.00,VWS V15.00,2017-02-23 11:22:00,
2017-02-23 05:27:00,54.9,52.9,29.61,ESE,123,0.0,0.0,93,0.00,,,0.00,VWS V15.00,2017-02-23 11:27:00,
2017-02-23 05:32:00,55.1,53.1,29.61,ESE,123,0.0,0.0,93,0.00,,,0.00,VWS V15.00,2017-02-23 11:32:00,
2017-02-23 05:42:00,55.2,52.9,29.60,ESE,123,0.0,0.0,92,0.00,,,0.00,VWS V15.00,2017-02-23 11:42:00,
2017-02-23 05:47:00,55.2,52.9,29.60,ESE,123,0.0,0.0,92,0.00,,,0.00,VWS V15.00,2017-02-23 11:47:00,
2017-02-23 05:52:00,55.2,52.9,29.60,ESE,123,0.0,0.0,92,0.00,,,0.00,VWS V15.00,2017-02-23 11:52:00,
2017-02-23 05:57:00,55.3,53.0,29.59,SE,125,0.0,0.0,92,0.00,,,0.00,VWS V15.00,2017-02-23 11:57:00,
2017-02-23 06:02:00,55.3,53.0,29.59,SE,125,0.0,0.0,92,0.00,,,0.00,VWS V15.00,2017-02-23 12:02:00,
2017-02-23 06:07:00,55.1,52.8,29.59,SE,125,0.0,0.0,92,0.00,,,0.00,VWS V15.00,2017-02-23 12:07:00,
2017-02-23 06:12:00,54.9,52.6,29.59,SE,125,0.0,0.0,92,0.00,,,0.00,VWS V15.00,2017-02-23 12:12:00,
2017-02-23 06:17:00,54.4,52.1,29.59,SE,125,0.0,0.0,92,0.00,,,0.00,VWS V15.00,2017-02-23 12:17:00,
2017-02-23 06:22:00,54.0,51.4,29.59,SE,125,0.0,0.0,91,0.00,,,0.00,VWS V15.00,2017-02-23 12:22:00,
2017-02-23 06:27:00,53.5,50.9,29.60,SE,125,0.0,0.0,91,0.00,,,0.00,VWS V15.00,2017-02-23 12:27:00,
2017-02-23 06:32:00,53.0,51.0,29.60,SE,125,0.0,0.0,93,0.00,,,0.00,VWS V15.00,2017-02-23 12:32:00,
2017-02-23 06:37:00,53.0,51.3,29.60,SE,125,0.0,0.0,94,0.00,,,0.00,VWS V15.00,2017-02-23 12:37:00,
2017-02-23 06:42:00,52.7,51.0,29.60,SE,125,0.0,0.0,94,0.00,,,0.00,VWS V15.00,2017-02-23 12:42:00,
2017-02-23 06:52:00,52.7,51.0,29.60,ESE,121,0.0,0.0,94,0.00,,,0.00,VWS V15.00,2017-02-23 12:52:00,
2017-02-23 06:57:00,53.1,51.7,29.59,ESE,121,0.0,0.0,95,0.00,,,0.00,VWS V15.00,2017-02-23 12:57:00,
2017-02-23 07:02:00,53.5,52.1,29.59,ESE,121,0.0,0.0,95,0.00,,,0.00,VWS V15.00,2017-02-23 13:02:00,
2017-02-23 07:07:00,53.6,52.2,29.59,ESE,121,0.0,0.0,95,0.00,,,0.00,VWS V15.00,2017-02-23 13:07:00,
2017-02-23 07:12:00,53.6,51.9,29.59,ESE,121,0.0,0.0,94,0.00,,,0.00,VWS V15.00,2017-02-23 13:12:00,
2017-02-23 07:17:00,53.8,52.1,29.59,ESE,121,0.0,0.0,94,0.00,,,0.00,VWS V15.00,2017-02-23 13:17:00,
2017-02-23 07:22:00,54.2,52.5,29.59,ESE,121,0.0,0.0,94,0.00,,,0.00,VWS V15.00,2017-02-23 13:22:00,
2017-02-23 07:27:00,54.3,52.6,29.59,ESE,121,0.0,0.0,94,0.00,,,0.00,VWS V15.00,2017-02-23 13:27:00,
2017-02-23 07:32:00,54.4,52.7,29.59,ESE,121,0.0,0.0,94,0.00,,,0.00,VWS V15.00,2017-02-23 13:32:00,
2017-02-23 07:37:00,54.6,52.9,29.59,ESE,121,0.0,0.0,94,0.00,,,0.00,VWS V15.00,2017-02-23 13:37:00,
2017-02-23 07:42:00,54.8,53.1,29.58,ESE,121,0.0,0.0,94,0.00,,,0.00,VWS V15.00,2017-02-23 13:42:00,
2017-02-23 07:47:00,55.0,53.3,29.58,ESE,120,0.0,0.0,94,0.00,,,0.00,VWS V15.00,2017-02-23 13:47:00,
2017-02-23 07:52:00,55.4,53.4,29.58,ESE,120,0.0,0.0,93,0.00,,,0.00,VWS V15.00,2017-02-23 13:52:00,
2017-02-23 07:57:00,55.9,53.9,29.58,ESE,108,0.0,0.0,93,0.00,,,0.00,VWS V15.00,2017-02-23 13:57:00,
2017-02-23 08:02:00,56.3,54.0,29.58,ESE,110,0.0,0.0,92,0.00,,,0.00,VWS V15.00,2017-02-23 14:02:00,
2017-02-23 08:07:00,56.7,54.1,29.58,ESE,115,0.0,0.0,91,0.00,,,0.00,VWS V15.00,2017-02-23 14:07:00,
2017-02-23 08:12:00,57.0,54.1,29.58,ESE,115,0.0,0.0,90,0.00,,,0.00,VWS V15.00,2017-02-23 14:12:00,
2017-02-23 08:17:00,57.3,54.4,29.58,South,177,0.0,0.0,90,0.00,,,0.00,VWS V15.00,2017-02-23 14:17:00,
2017-02-23 08:22:00,57.7,54.5,29.58,South,172,0.0,0.0,89,0.00,,,0.00,VWS V15.00,2017-02-23 14:22:00,
2017-02-23 08:27:00,58.2,55.0,29.58,SE,138,0.0,0.0,89,0.00,,,0.00,VWS V15.00,2017-02-23 14:27:00,
2017-02-23 08:32:00,58.9,55.4,29.58,SE,139,0.0,0.0,88,0.00,,,0.00,VWS V15.00,2017-02-23 14:32:00,
2017-02-23 08:37:00,59.5,55.3,29.58,SE,146,0.0,0.0,86,0.00,,,0.00,VWS V15.00,2017-02-23 14:37:00,
2017-02-23 08:47:00,60.9,56.0,29.58,ESE,120,0.0,0.0,84,0.00,,,0.00,VWS V15.00,2017-02-23 14:47:00,
2017-02-23 08:57:00,61.6,56.1,29.57,SSE,148,0.0,0.0,82,0.00,,,0.00,VWS V15.00,2017-02-23 14:57:00,
2017-02-23 09:02:00,62.2,56.3,29.57,ESE,117,0.0,0.0,81,0.00,,,0.00,VWS V15.00,2017-02-23 15:02:00,
2017-02-23 09:07:00,62.7,56.5,29.57,SSE,160,0.0,0.0,80,0.00,,,0.00,VWS V15.00,2017-02-23 15:07:00,
2017-02-23 09:17:00,63.5,56.2,29.56,SE,134,0.0,0.0,77,0.00,,,0.00,VWS V15.00,2017-02-23 15:17:00,
2017-02-23 09:22:00,63.9,56.2,29.56,ESE,123,0.0,0.0,76,0.00,,,0.00,VWS V15.00,2017-02-23 15:22:00,
2017-02-23 09:27:00,64.1,55.7,29.56,ESE,121,0.0,0.0,74,0.00,,,0.00,VWS V15.00,2017-02-23 15:27:00,
2017-02-23 09:32:00,64.2,55.8,29.56,SSE,164,0.0,0.0,74,0.00,,,0.00,VWS V15.00,2017-02-23 15:32:00,
2017-02-23 09:37:00,64.7,55.9,29.56,SSE,163,0.0,0.0,73,0.00,,,0.00,VWS V15.00,2017-02-23 15:37:00,
2017-02-23 09:42:00,65.3,56.0,29.56,South,169,0.0,0.0,72,0.00,,,0.00,VWS V15.00,2017-02-23 15:42:00,
2017-02-23 09:47:00,65.7,56.0,29.56,SSE,148,0.0,0.0,71,0.00,,,0.00,VWS V15.00,2017-02-23 15:47:00,
2017-02-23 09:57:00,67.1,56.2,29.55,SSE,157,0.0,0.0,68,0.00,,,0.00,VWS V15.00,2017-02-23 15:57:00,
2017-02-23 10:02:00,67.4,55.7,29.55,SE,134,0.0,0.0,66,0.00,,,0.00,VWS V15.00,2017-02-23 16:02:00,
2017-02-23 10:07:00,67.8,56.0,29.55,South,180,0.0,0.0,66,0.00,,,0.00,VWS V15.00,2017-02-23 16:07:00,
2017-02-23 10:12:00,68.3,55.7,29.54,SW,236,0.0,0.0,64,0.00,,,0.00,VWS V15.00,2017-02-23 16:12:00,
2017-02-23 10:17:00,69.1,55.1,29.54,South,169,0.0,0.0,61,0.00,,,0.00,VWS V15.00,2017-02-23 16:17:00,
2017-02-23 10:27:00,70.6,55.1,29.53,SE,139,0.0,0.0,58,0.00,,,0.00,VWS V15.00,2017-02-23 16:27:00,
2017-02-23 10:32:00,71.7,54.7,29.53,South,180,0.0,0.0,55,0.00,,,0.00,VWS V15.00,2017-02-23 16:32:00,
2017-02-23 10:37:00,71.4,51.8,29.53,SW,234,0.0,0.0,50,0.00,,,0.00,VWS V15.00,2017-02-23 16:37:00,
2017-02-23 10:42:00,71.2,52.2,29.53,South,184,0.0,0.0,51,0.00,,,0.00,VWS V15.00,2017-02-23 16:42:00,
2017-02-23 10:47:00,71.9,52.8,29.53,SSE,162,0.0,0.0,51,0.00,,,0.00,VWS V15.00,2017-02-23 16:47:00,
2017-02-23 10:52:00,72.8,52.5,29.53,SW,220,0.0,0.0,49,0.00,,,0.00,VWS V15.00,2017-02-23 16:52:00,
2017-02-23 10:57:00,73.6,51.0,29.51,SSE,167,0.0,0.0,45,0.00,,,0.00,VWS V15.00,2017-02-23 16:57:00,
2017-02-23 11:02:00,73.4,51.4,29.51,SSE,150,0.0,0.0,46,0.00,,,0.00,VWS V15.00,2017-02-23 17:02:00,
2017-02-23 11:07:00,74.1,52.6,29.51,WSW,239,0.0,0.0,47,0.00,,,0.00,VWS V15.00,2017-02-23 17:07:00,
2017-02-23 11:12:00,74.2,50.9,29.50,SSE,157,0.0,0.0,44,0.00,,,0.00,VWS V15.00,2017-02-23 17:12:00,
2017-02-23 11:17:00,74.6,51.9,29.50,WSW,252,0.0,0.0,45,0.00,,,0.00,VWS V15.00,2017-02-23 17:17:00,
2017-02-23 11:22:00,75.5,51.5,29.50,SW,215,0.0,0.0,43,0.00,,,0.00,VWS V15.00,2017-02-23 17:22:00,
2017-02-23 11:27:00,75.3,51.9,29.49,SSW,208,0.0,0.0,44,0.00,,,0.00,VWS V15.00,2017-02-23 17:27:00,
2017-02-23 11:37:00,76.2,51.5,29.49,South,191,0.0,0.0,42,0.00,,,0.00,VWS V15.00,2017-02-23 17:37:00,
2017-02-23 11:42:00,76.6,52.5,29.48,SSE,149,0.0,0.0,43,0.00,,,0.00,VWS V15.00,2017-02-23 17:42:00,
2017-02-23 11:47:00,77.1,50.9,29.48,SE,138,0.0,0.0,40,0.00,,,0.00,VWS V15.00,2017-02-23 17:47:00,
2017-02-23 11:52:00,77.2,51.7,29.48,South,175,0.0,0.0,41,0.00,,,0.00,VWS V15.00,2017-02-23 17:52:00,